Aeroporto :
LOGIN :

Iscrizione | Disclaimer

   EN    FR    IT 

 










Sommario :    VFR   VFR Marginale   IFR   IFR Intensivo   IFR Molto Intensivo
Visibilità : 
Base nubi : 
>= 8 km
>= 3000ft
5 / 8 km
1000 / 3000 ft
1500m / 5 km
500 / 1000 ft
800 / 1500m
200 / 500 ft
< 800m
< 200 ft
Simboli :   Temporali  Nebbia  Neve Forte  Precipitazioni Forti  Vento > 20 kt
SIGMETs :   Varie  Temporali  Ghiacco  Turbolenza  Onda orograficha  Ceneri Vulcaniche







- Altitudine del aeroporto : 461 ft
- Codice IATA : WIE


ETOU - Wiesbaden Army

ULTIMO METAR :
  • 240556Z AUTO 00000KT 9999 OVC140 13/09 A3000 RMK AO2 SLP159 T01310090 10131 20087 53002 $

METARs OBSOLETI :
  • 240456Z AUTO 00000KT 9999 OVC130 11/08 A3000 RMK AO2 SLP159 T01090078 $
  • 240356Z AUTO 00000KT 9999 OVC130 11/07 A3000 RMK AO2 SLP159 T01080071 $

TAF AMD TAF ETOU
Valido dal 24 a 04 ore il 25 a 09 ore UTC


240448Z 2404/2509 VRB06KT 9999 BKN120 QNH2999INS
BECMG 2501/2502 32009KT 8000 -SHRA BKN040 QNH2998INS TX21/2412Z TN06/2503Z LAST NO AMDS AFT 2404 NEXT 2419
Nessun NOTAM noto per questo aeroporto.



MetMap, La meteo Aeronautica in un colpo d'occhio ! - Copyright ORBIFLY Dicembre 2007 - Disclaimer

ORBIFLY MET'MAP TEAM :

Programmazione e sviluppo : Alexandra Zaïnal
Concezione e sviluppo : Baudouin d'Aumeries
Co-Programmazione e sviluppo : Marc-Olivier Méhu
Supporto tecnico e logistico : Manuel Goepfert
Aiuto per la traduzione : Arnaldo La Scala

Contatto : metmap@orbifly.com




FONTI E CREDITI :

   NOAA